sensor_id;sensor_type;location;lat;lon;timestamp;pressure;altitude;pressure_sealevel;temperature;humidity
40372;BME280;28564;53.346;-6.554;2022-12-07T00:01:16;102066.97;;;5.61;49.64
40372;BME280;28564;53.346;-6.554;2022-12-07T00:03:44;102063.62;;;5.64;49.55
40372;BME280;28564;53.346;-6.554;2022-12-07T00:06:14;102059.89;;;5.68;49.30
40372;BME280;28564;53.346;-6.554;2022-12-07T00:08:43;102062.49;;;5.57;49.12
40372;BME280;28564;53.346;-6.554;2022-12-07T00:11:13;102063.37;;;5.78;49.37
40372;BME280;28564;53.346;-6.554;2022-12-07T00:13:41;102062.80;;;5.75;49.36
40372;BME280;28564;53.346;-6.554;2022-12-07T00:16:11;102058.81;;;5.48;49.46
40372;BME280;28564;53.346;-6.554;2022-12-07T00:18:39;102053.51;;;5.49;49.30
40372;BME280;28564;53.346;-6.554;2022-12-07T00:21:10;102054.76;;;5.48;49.51
40372;BME280;28564;53.346;-6.554;2022-12-07T00:23:38;102055.87;;;5.51;49.62
40372;BME280;28564;53.346;-6.554;2022-12-07T00:26:06;102057.45;;;5.52;49.58
40372;BME280;28564;53.346;-6.554;2022-12-07T00:28:35;102057.27;;;5.83;49.74
40372;BME280;28564;53.346;-6.554;2022-12-07T00:31:05;102059.06;;;5.62;49.72
40372;BME280;28564;53.346;-6.554;2022-12-07T00:33:33;102055.32;;;5.43;49.66
40372;BME280;28564;53.346;-6.554;2022-12-07T00:36:02;102048.91;;;5.70;49.68
40372;BME280;28564;53.346;-6.554;2022-12-07T00:38:32;102046.72;;;5.52;49.32
40372;BME280;28564;53.346;-6.554;2022-12-07T00:41:01;102044.02;;;5.93;49.20
40372;BME280;28564;53.346;-6.554;2022-12-07T00:43:29;102048.18;;;5.58;49.35
40372;BME280;28564;53.346;-6.554;2022-12-07T00:45:57;102053.06;;;5.52;49.40
40372;BME280;28564;53.346;-6.554;2022-12-07T00:48:25;102051.83;;;5.77;49.60
40372;BME280;28564;53.346;-6.554;2022-12-07T00:50:53;102058.54;;;5.54;49.63
40372;BME280;28564;53.346;-6.554;2022-12-07T00:53:20;102050.56;;;5.55;49.52
40372;BME280;28564;53.346;-6.554;2022-12-07T00:55:48;102050.09;;;5.57;49.55
40372;BME280;28564;53.346;-6.554;2022-12-07T00:58:16;102047.70;;;5.57;49.37
40372;BME280;28564;53.346;-6.554;2022-12-07T01:00:43;102045.64;;;5.78;49.49
40372;BME280;28564;53.346;-6.554;2022-12-07T01:03:13;102045.12;;;5.49;49.51
40372;BME280;28564;53.346;-6.554;2022-12-07T01:05:40;102042.23;;;5.49;49.61
40372;BME280;28564;53.346;-6.554;2022-12-07T01:08:15;102042.09;;;5.74;49.56
40372;BME280;28564;53.346;-6.554;2022-12-07T01:10:42;102041.34;;;5.47;49.53
40372;BME280;28564;53.346;-6.554;2022-12-07T01:13:10;102040.20;;;5.69;49.50
40372;BME280;28564;53.346;-6.554;2022-12-07T01:15:39;102040.15;;;5.65;49.65
40372;BME280;28564;53.346;-6.554;2022-12-07T01:18:06;102040.08;;;5.20;49.75
40372;BME280;28564;53.346;-6.554;2022-12-07T01:20:33;102038.85;;;5.43;49.66
40372;BME280;28564;53.346;-6.554;2022-12-07T01:23:00;102039.59;;;5.68;49.62
40372;BME280;28564;53.346;-6.554;2022-12-07T01:25:28;102036.89;;;5.67;49.72
40372;BME280;28564;53.346;-6.554;2022-12-07T01:27:55;102038.31;;;5.71;49.73
40372;BME280;28564;53.346;-6.554;2022-12-07T01:30:23;102042.78;;;5.76;49.67
40372;BME280;28564;53.346;-6.554;2022-12-07T01:32:50;102034.15;;;5.77;49.61
40372;BME280;28564;53.346;-6.554;2022-12-07T01:35:17;102035.96;;;5.30;49.56
40372;BME280;28564;53.346;-6.554;2022-12-07T01:37:44;102034.22;;;5.50;49.54
40372;BME280;28564;53.346;-6.554;2022-12-07T01:40:12;102031.99;;;5.50;49.66
40372;BME280;28564;53.346;-6.554;2022-12-07T01:42:39;102029.38;;;5.53;49.64
40372;BME280;28564;53.346;-6.554;2022-12-07T01:45:37;102026.76;;;5.80;49.60
40372;BME280;28564;53.346;-6.554;2022-12-07T01:48:05;102022.00;;;5.85;49.59
40372;BME280;28564;53.346;-6.554;2022-12-07T01:50:35;102017.82;;;5.59;49.45
40372;BME280;28564;53.346;-6.554;2022-12-07T01:53:06;102012.85;;;5.57;49.41
40372;BME280;28564;53.346;-6.554;2022-12-07T01:55:38;102010.06;;;5.55;49.47
40372;BME280;28564;53.346;-6.554;2022-12-07T01:58:08;102005.95;;;5.52;49.46
40372;BME280;28564;53.346;-6.554;2022-12-07T02:00:35;102004.98;;;5.28;49.47
40372;BME280;28564;53.346;-6.554;2022-12-07T02:03:06;102003.73;;;5.46;49.60
40372;BME280;28564;53.346;-6.554;2022-12-07T02:05:37;102003.22;;;5.50;49.63
40372;BME280;28564;53.346;-6.554;2022-12-07T02:08:05;101998.53;;;5.50;49.58
40372;BME280;28564;53.346;-6.554;2022-12-07T02:10:33;101998.49;;;5.77;49.55
40372;BME280;28564;53.346;-6.554;2022-12-07T02:13:03;101997.52;;;5.75;49.51
40372;BME280;28564;53.346;-6.554;2022-12-07T02:15:41;101994.56;;;5.43;49.48
40372;BME280;28564;53.346;-6.554;2022-12-07T02:18:17;101990.97;;;5.69;49.42
40372;BME280;28564;53.346;-6.554;2022-12-07T02:20:52;101990.40;;;5.61;49.54
40372;BME280;28564;53.346;-6.554;2022-12-07T02:24:14;101990.66;;;5.29;49.64
40372;BME280;28564;53.346;-6.554;2022-12-07T02:27:06;101991.79;;;5.52;49.73
40372;BME280;28564;53.346;-6.554;2022-12-07T02:29:37;101994.82;;;5.23;49.85
40372;BME280;28564;53.346;-6.554;2022-12-07T02:32:11;101995.06;;;5.49;49.96
40372;BME280;28564;53.346;-6.554;2022-12-07T02:34:47;101993.07;;;5.25;49.91
40372;BME280;28564;53.346;-6.554;2022-12-07T02:37:23;101992.05;;;5.32;49.76
40372;BME280;28564;53.346;-6.554;2022-12-07T02:39:57;101993.39;;;5.35;49.72
40372;BME280;28564;53.346;-6.554;2022-12-07T02:42:30;101989.28;;;5.58;49.75
40372;BME280;28564;53.346;-6.554;2022-12-07T02:45:00;101987.69;;;5.27;49.76
40372;BME280;28564;53.346;-6.554;2022-12-07T02:47:29;101984.23;;;5.52;49.83
40372;BME280;28564;53.346;-6.554;2022-12-07T02:49:56;101983.08;;;5.48;49.74
40372;BME280;28564;53.346;-6.554;2022-12-07T02:52:24;101984.34;;;5.16;49.77
40372;BME280;28564;53.346;-6.554;2022-12-07T02:54:51;101983.49;;;5.38;49.81
40372;BME280;28564;53.346;-6.554;2022-12-07T02:57:29;101987.63;;;5.33;49.97
40372;BME280;28564;53.346;-6.554;2022-12-07T03:00:05;101990.23;;;5.07;50.16
40372;BME280;28564;53.346;-6.554;2022-12-07T03:02:41;101987.77;;;5.11;50.27
40372;BME280;28564;53.346;-6.554;2022-12-07T03:05:25;101981.69;;;5.42;50.27
40372;BME280;28564;53.346;-6.554;2022-12-07T03:08:02;101977.15;;;4.98;50.09
40372;BME280;28564;53.346;-6.554;2022-12-07T03:10:36;101977.32;;;5.21;49.97
40372;BME280;28564;53.346;-6.554;2022-12-07T03:13:12;101977.83;;;5.53;49.89
40372;BME280;28564;53.346;-6.554;2022-12-07T03:15:51;101977.12;;;5.46;49.94
40372;BME280;28564;53.346;-6.554;2022-12-07T03:18:23;101975.21;;;5.15;50.11
40372;BME280;28564;53.346;-6.554;2022-12-07T03:20:55;101976.21;;;5.41;50.17
40372;BME280;28564;53.346;-6.554;2022-12-07T03:23:25;101974.59;;;5.15;50.17
40372;BME280;28564;53.346;-6.554;2022-12-07T03:25:57;101973.89;;;5.43;50.15
40372;BME280;28564;53.346;-6.554;2022-12-07T03:28:29;101969.45;;;5.46;50.22
40372;BME280;28564;53.346;-6.554;2022-12-07T03:31:02;101968.52;;;5.48;50.04
40372;BME280;28564;53.346;-6.554;2022-12-07T03:33:34;101967.95;;;5.49;50.04
40372;BME280;28564;53.346;-6.554;2022-12-07T03:36:06;101966.41;;;5.21;49.97
40372;BME280;28564;53.346;-6.554;2022-12-07T03:38:40;101963.45;;;5.46;49.94
40372;BME280;28564;53.346;-6.554;2022-12-07T03:41:14;101963.41;;;5.68;49.98
40372;BME280;28564;53.346;-6.554;2022-12-07T03:43:43;101960.80;;;5.45;49.88
40372;BME280;28564;53.346;-6.554;2022-12-07T03:46:19;101960.50;;;5.41;49.84
40372;BME280;28564;53.346;-6.554;2022-12-07T03:48:56;101959.98;;;5.09;49.87
40372;BME280;28564;53.346;-6.554;2022-12-07T03:51:31;101961.55;;;5.05;49.97
40372;BME280;28564;53.346;-6.554;2022-12-07T03:54:07;101960.52;;;5.07;50.12
40372;BME280;28564;53.346;-6.554;2022-12-07T03:56:38;101959.73;;;5.37;50.16
40372;BME280;28564;53.346;-6.554;2022-12-07T03:59:07;101953.45;;;5.14;50.16
40372;BME280;28564;53.346;-6.554;2022-12-07T04:01:35;101951.43;;;5.44;50.17
40372;BME280;28564;53.346;-6.554;2022-12-07T04:04:02;101950.28;;;5.20;50.08
40372;BME280;28564;53.346;-6.554;2022-12-07T04:06:29;101949.40;;;5.49;49.97
40372;BME280;28564;53.346;-6.554;2022-12-07T04:08:57;101947.80;;;5.19;49.98
40372;BME280;28564;53.346;-6.554;2022-12-07T04:11:24;101948.31;;;5.15;49.98
40372;BME280;28564;53.346;-6.554;2022-12-07T04:13:51;101946.93;;;5.09;49.93
40372;BME280;28564;53.346;-6.554;2022-12-07T04:16:19;101945.26;;;5.30;50.04
40372;BME280;28564;53.346;-6.554;2022-12-07T04:18:46;101943.66;;;4.99;50.04
40372;BME280;28564;53.346;-6.554;2022-12-07T04:21:13;101941.91;;;5.22;49.96
40372;BME280;28564;53.346;-6.554;2022-12-07T04:23:41;101938.55;;;5.14;49.89
40372;BME280;28564;53.346;-6.554;2022-12-07T04:26:08;101938.75;;;4.80;49.99
40372;BME280;28564;53.346;-6.554;2022-12-07T04:28:35;101938.69;;;5.00;50.04
40372;BME280;28564;53.346;-6.554;2022-12-07T04:31:02;101936.13;;;4.95;50.01
40372;BME280;28564;53.346;-6.554;2022-12-07T04:33:30;101934.84;;;4.89;50.07
40372;BME280;28564;53.346;-6.554;2022-12-07T04:35:57;101931.18;;;4.83;49.98
40372;BME280;28564;53.346;-6.554;2022-12-07T04:38:24;101930.95;;;4.70;49.98
40372;BME280;28564;53.346;-6.554;2022-12-07T04:40:51;101928.85;;;4.61;50.03
40372;BME280;28564;53.346;-6.554;2022-12-07T04:43:19;101928.29;;;4.51;50.12
40372;BME280;28564;53.346;-6.554;2022-12-07T04:45:47;101924.80;;;4.45;50.26
40372;BME280;28564;53.346;-6.554;2022-12-07T04:48:14;101924.09;;;4.86;50.27
40372;BME280;28564;53.346;-6.554;2022-12-07T04:50:42;101923.75;;;4.50;50.46
40372;BME280;28564;53.346;-6.554;2022-12-07T04:53:09;101920.76;;;4.47;50.62
40372;BME280;28564;53.346;-6.554;2022-12-07T04:55:37;101920.04;;;4.73;50.69
40372;BME280;28564;53.346;-6.554;2022-12-07T04:58:04;101915.71;;;4.46;50.80
40372;BME280;28564;53.346;-6.554;2022-12-07T05:00:31;101916.30;;;4.48;50.62
40372;BME280;28564;53.346;-6.554;2022-12-07T05:02:58;101916.57;;;4.71;50.53
40372;BME280;28564;53.346;-6.554;2022-12-07T05:05:26;101916.34;;;4.65;50.71
40372;BME280;28564;53.346;-6.554;2022-12-07T05:07:53;101917.79;;;4.65;50.94
40372;BME280;28564;53.346;-6.554;2022-12-07T05:10:20;101921.34;;;4.41;50.91
40372;BME280;28564;53.346;-6.554;2022-12-07T05:12:48;101919.06;;;4.23;51.06
40372;BME280;28564;53.346;-6.554;2022-12-07T05:15:16;101921.33;;;4.82;51.13
40372;BME280;28564;53.346;-6.554;2022-12-07T05:17:44;101921.33;;;4.65;51.11
40372;BME280;28564;53.346;-6.554;2022-12-07T05:20:11;101919.84;;;4.74;50.99
40372;BME280;28564;53.346;-6.554;2022-12-07T05:22:38;101921.36;;;4.54;50.44
40372;BME280;28564;53.346;-6.554;2022-12-07T05:25:06;101918.39;;;5.01;50.67
40372;BME280;28564;53.346;-6.554;2022-12-07T05:27:33;101920.56;;;4.58;50.87
40372;BME280;28564;53.346;-6.554;2022-12-07T05:30:00;101922.25;;;5.15;50.70
40372;BME280;28564;53.346;-6.554;2022-12-07T05:32:28;101924.73;;;4.71;50.67
40372;BME280;28564;53.346;-6.554;2022-12-07T05:34:55;101928.20;;;4.75;50.56
40372;BME280;28564;53.346;-6.554;2022-12-07T05:37:22;101926.69;;;4.76;50.30
40372;BME280;28564;53.346;-6.554;2022-12-07T05:39:50;101925.59;;;4.75;50.38
40372;BME280;28564;53.346;-6.554;2022-12-07T05:42:17;101924.32;;;5.01;50.39
40372;BME280;28564;53.346;-6.554;2022-12-07T05:44:46;101922.08;;;4.79;50.32
40372;BME280;28564;53.346;-6.554;2022-12-07T05:47:14;101919.31;;;4.56;50.11
40372;BME280;28564;53.346;-6.554;2022-12-07T05:49:42;101916.94;;;4.78;49.91
40372;BME280;28564;53.346;-6.554;2022-12-07T05:52:09;101911.42;;;4.73;50.01
40372;BME280;28564;53.346;-6.554;2022-12-07T05:54:36;101910.39;;;4.94;50.18
40372;BME280;28564;53.346;-6.554;2022-12-07T05:57:03;101909.33;;;4.72;50.13
40372;BME280;28564;53.346;-6.554;2022-12-07T05:59:31;101911.65;;;4.73;49.93
40372;BME280;28564;53.346;-6.554;2022-12-07T06:02:01;101908.61;;;4.69;49.96
40372;BME280;28564;53.346;-6.554;2022-12-07T06:04:30;101908.67;;;4.66;49.95
40372;BME280;28564;53.346;-6.554;2022-12-07T06:06:59;101908.99;;;4.85;50.03
40372;BME280;28564;53.346;-6.554;2022-12-07T06:09:27;101910.28;;;4.85;50.03
40372;BME280;28564;53.346;-6.554;2022-12-07T06:11:55;101908.16;;;4.66;50.02
40372;BME280;28564;53.346;-6.554;2022-12-07T06:14:23;101904.72;;;4.89;50.06
40372;BME280;28564;53.346;-6.554;2022-12-07T06:16:51;101903.04;;;4.67;50.12
40372;BME280;28564;53.346;-6.554;2022-12-07T06:19:18;101896.73;;;4.92;50.13
40372;BME280;28564;53.346;-6.554;2022-12-07T06:21:45;101895.02;;;4.72;50.04
40372;BME280;28564;53.346;-6.554;2022-12-07T06:24:14;101893.42;;;4.93;50.07
40372;BME280;28564;53.346;-6.554;2022-12-07T06:26:42;101889.58;;;4.75;49.98
40372;BME280;28564;53.346;-6.554;2022-12-07T06:29:11;101889.95;;;4.76;49.72
40372;BME280;28564;53.346;-6.554;2022-12-07T06:31:38;101888.80;;;5.18;49.71
40372;BME280;28564;53.346;-6.554;2022-12-07T06:34:09;101887.40;;;4.86;49.74
40372;BME280;28564;53.346;-6.554;2022-12-07T06:36:37;101891.33;;;5.07;49.82
40372;BME280;28564;53.346;-6.554;2022-12-07T06:39:05;101890.17;;;4.76;49.91
40372;BME280;28564;53.346;-6.554;2022-12-07T06:41:33;101888.46;;;4.50;49.92
40372;BME280;28564;53.346;-6.554;2022-12-07T06:44:00;101887.46;;;4.97;49.96
40372;BME280;28564;53.346;-6.554;2022-12-07T06:46:27;101889.55;;;4.42;49.85
40372;BME280;28564;53.346;-6.554;2022-12-07T06:48:54;101888.60;;;4.36;49.90
40372;BME280;28564;53.346;-6.554;2022-12-07T06:51:21;101887.87;;;4.27;49.82
40372;BME280;28564;53.346;-6.554;2022-12-07T06:53:49;101890.33;;;4.13;49.75
40372;BME280;28564;53.346;-6.554;2022-12-07T06:56:17;101893.88;;;4.49;49.77
40372;BME280;28564;53.346;-6.554;2022-12-07T06:58:43;101893.65;;;4.39;49.86
40372;BME280;28564;53.346;-6.554;2022-12-07T07:01:12;101892.67;;;4.01;49.88
40372;BME280;28564;53.346;-6.554;2022-12-07T07:03:40;101896.34;;;4.20;49.97
40372;BME280;28564;53.346;-6.554;2022-12-07T07:06:08;101894.30;;;4.12;50.05
40372;BME280;28564;53.346;-6.554;2022-12-07T07:08:36;101889.91;;;3.80;50.16
40372;BME280;28564;53.346;-6.554;2022-12-07T07:11:05;101895.63;;;4.02;50.23
40372;BME280;28564;53.346;-6.554;2022-12-07T07:13:33;101890.37;;;3.98;50.23
40372;BME280;28564;53.346;-6.554;2022-12-07T07:16:00;101887.55;;;3.90;50.16
40372;BME280;28564;53.346;-6.554;2022-12-07T07:18:28;101882.90;;;3.83;50.11
40372;BME280;28564;53.346;-6.554;2022-12-07T07:20:56;101882.50;;;3.46;50.11
40372;BME280;28564;53.346;-6.554;2022-12-07T07:23:23;101885.08;;;3.89;50.20
40372;BME280;28564;53.346;-6.554;2022-12-07T07:25:51;101884.99;;;3.84;50.24
40372;BME280;28564;53.346;-6.554;2022-12-07T07:28:18;101882.64;;;3.56;50.30
40372;BME280;28564;53.346;-6.554;2022-12-07T07:30:45;101881.54;;;3.52;50.38
40372;BME280;28564;53.346;-6.554;2022-12-07T07:33:13;101883.01;;;3.72;50.52
40372;BME280;28564;53.346;-6.554;2022-12-07T07:35:40;101881.99;;;3.51;50.70
40372;BME280;28564;53.346;-6.554;2022-12-07T07:38:08;101887.12;;;3.53;50.80
40372;BME280;28564;53.346;-6.554;2022-12-07T07:40:36;101885.94;;;4.02;50.97
40372;BME280;28564;53.346;-6.554;2022-12-07T07:43:03;101885.36;;;3.63;50.99
40372;BME280;28564;53.346;-6.554;2022-12-07T07:45:31;101888.57;;;3.67;51.10
40372;BME280;28564;53.346;-6.554;2022-12-07T07:47:58;101888.29;;;3.74;51.15
40372;BME280;28564;53.346;-6.554;2022-12-07T07:50:25;101893.98;;;3.79;51.15
40372;BME280;28564;53.346;-6.554;2022-12-07T07:52:53;101896.93;;;3.89;51.16
40372;BME280;28564;53.346;-6.554;2022-12-07T07:55:20;101895.09;;;4.19;50.83
40372;BME280;28564;53.346;-6.554;2022-12-07T07:57:47;101897.05;;;3.96;50.82
40372;BME280;28564;53.346;-6.554;2022-12-07T08:00:16;101894.67;;;3.99;50.89
40372;BME280;28564;53.346;-6.554;2022-12-07T08:02:44;101893.27;;;4.04;50.59
40372;BME280;28564;53.346;-6.554;2022-12-07T08:05:12;101891.83;;;3.96;50.34
40372;BME280;28564;53.346;-6.554;2022-12-07T08:07:40;101892.28;;;3.86;50.33
40372;BME280;28564;53.346;-6.554;2022-12-07T08:10:10;101891.29;;;3.74;50.18
40372;BME280;28564;53.346;-6.554;2022-12-07T08:12:38;101897.62;;;3.66;50.13
40372;BME280;28564;53.346;-6.554;2022-12-07T08:15:07;101897.14;;;4.01;50.16
40372;BME280;28564;53.346;-6.554;2022-12-07T08:17:34;101897.03;;;3.49;50.16
40372;BME280;28564;53.346;-6.554;2022-12-07T08:20:02;101899.93;;;3.40;50.15
40372;BME280;28564;53.346;-6.554;2022-12-07T08:22:30;101897.52;;;3.57;50.24
40372;BME280;28564;53.346;-6.554;2022-12-07T08:24:57;101893.32;;;3.34;50.16
40372;BME280;28564;53.346;-6.554;2022-12-07T08:27:24;101895.00;;;3.33;50.09
40372;BME280;28564;53.346;-6.554;2022-12-07T08:29:51;101892.71;;;3.44;50.17
40372;BME280;28564;53.346;-6.554;2022-12-07T08:32:19;101890.15;;;3.37;50.22
40372;BME280;28564;53.346;-6.554;2022-12-07T08:34:47;101886.91;;;3.50;50.27
40372;BME280;28564;53.346;-6.554;2022-12-07T08:37:14;101889.59;;;3.44;50.40
40372;BME280;28564;53.346;-6.554;2022-12-07T08:39:41;101891.12;;;3.41;50.48
40372;BME280;28564;53.346;-6.554;2022-12-07T08:42:09;101890.90;;;3.37;50.57
40372;BME280;28564;53.346;-6.554;2022-12-07T08:44:36;101889.43;;;3.35;50.62
40372;BME280;28564;53.346;-6.554;2022-12-07T08:47:06;101891.42;;;3.13;50.54
40372;BME280;28564;53.346;-6.554;2022-12-07T08:49:37;101891.66;;;3.34;50.58
40372;BME280;28564;53.346;-6.554;2022-12-07T08:52:06;101891.86;;;3.14;50.59
40372;BME280;28564;53.346;-6.554;2022-12-07T08:54:34;101891.73;;;3.37;50.57
40372;BME280;28564;53.346;-6.554;2022-12-07T08:57:04;101887.03;;;3.15;50.46
40372;BME280;28564;53.346;-6.554;2022-12-07T08:59:33;101887.07;;;3.12;50.48
40372;BME280;28564;53.346;-6.554;2022-12-07T09:02:01;101889.34;;;3.12;50.53
40372;BME280;28564;53.346;-6.554;2022-12-07T09:04:28;101885.12;;;3.35;50.53
40372;BME280;28564;53.346;-6.554;2022-12-07T09:06:56;101878.32;;;3.35;50.49
40372;BME280;28564;53.346;-6.554;2022-12-07T09:09:23;101874.79;;;3.11;50.48
40372;BME280;28564;53.346;-6.554;2022-12-07T09:11:51;101875.84;;;3.33;50.52
40372;BME280;28564;53.346;-6.554;2022-12-07T09:14:18;101876.31;;;3.35;50.57
40372;BME280;28564;53.346;-6.554;2022-12-07T09:16:46;101878.40;;;3.37;50.59
40372;BME280;28564;53.346;-6.554;2022-12-07T09:19:13;101875.18;;;3.15;50.61
40372;BME280;28564;53.346;-6.554;2022-12-07T09:21:41;101879.84;;;3.18;50.63
40372;BME280;28564;53.346;-6.554;2022-12-07T09:24:08;101876.70;;;3.43;50.64
40372;BME280;28564;53.346;-6.554;2022-12-07T09:26:36;101881.71;;;3.23;50.64
40372;BME280;28564;53.346;-6.554;2022-12-07T09:29:03;101881.04;;;3.28;50.64
40372;BME280;28564;53.346;-6.554;2022-12-07T09:31:31;101879.07;;;3.30;50.64
40372;BME280;28564;53.346;-6.554;2022-12-07T09:33:59;101878.06;;;3.31;50.67
40372;BME280;28564;53.346;-6.554;2022-12-07T09:36:28;101877.38;;;3.58;50.71
40372;BME280;28564;53.346;-6.554;2022-12-07T09:38:56;101879.56;;;3.38;50.64
40372;BME280;28564;53.346;-6.554;2022-12-07T09:41:24;101881.63;;;3.41;50.77
40372;BME280;28564;53.346;-6.554;2022-12-07T09:43:53;101887.59;;;3.46;50.84
40372;BME280;28564;53.346;-6.554;2022-12-07T09:46:23;101886.60;;;3.54;50.98
40372;BME280;28564;53.346;-6.554;2022-12-07T09:48:51;101888.17;;;3.42;50.86
40372;BME280;28564;53.346;-6.554;2022-12-07T09:51:20;101887.56;;;3.71;50.65
40372;BME280;28564;53.346;-6.554;2022-12-07T09:53:48;101884.77;;;3.73;50.75
40372;BME280;28564;53.346;-6.554;2022-12-07T09:56:17;101884.40;;;3.61;50.57
40372;BME280;28564;53.346;-6.554;2022-12-07T09:58:45;101878.67;;;3.92;50.45
40372;BME280;28564;53.346;-6.554;2022-12-07T10:03:53;101877.10;;;3.75;49.48
40372;BME280;28564;53.346;-6.554;2022-12-07T10:06:21;101872.66;;;3.72;49.44
40372;BME280;28564;53.346;-6.554;2022-12-07T10:08:49;101871.75;;;4.15;49.64
40372;BME280;28564;53.346;-6.554;2022-12-07T10:11:16;101872.88;;;3.83;49.69
40372;BME280;28564;53.346;-6.554;2022-12-07T10:13:46;101872.05;;;3.80;49.80
40372;BME280;28564;53.346;-6.554;2022-12-07T10:16:37;101869.16;;;4.04;49.83
40372;BME280;28564;53.346;-6.554;2022-12-07T10:19:24;101871.79;;;4.02;49.97
40372;BME280;28564;53.346;-6.554;2022-12-07T10:22:03;101872.30;;;4.05;49.92
40372;BME280;28564;53.346;-6.554;2022-12-07T10:24:31;101870.73;;;4.06;50.05
40372;BME280;28564;53.346;-6.554;2022-12-07T10:26:58;101860.18;;;4.10;50.14
40372;BME280;28564;53.346;-6.554;2022-12-07T10:29:29;101860.32;;;4.16;50.16
40372;BME280;28564;53.346;-6.554;2022-12-07T10:31:58;101856.19;;;4.21;50.03
40372;BME280;28564;53.346;-6.554;2022-12-07T10:34:28;101850.90;;;4.26;50.09
40372;BME280;28564;53.346;-6.554;2022-12-07T10:37:15;101851.92;;;4.37;50.19
40372;BME280;28564;53.346;-6.554;2022-12-07T10:39:45;101854.78;;;4.42;49.91
40372;BME280;28564;53.346;-6.554;2022-12-07T10:42:17;101847.11;;;4.43;49.88
40372;BME280;28564;53.346;-6.554;2022-12-07T10:44:45;101846.69;;;4.48;49.90
40372;BME280;28564;53.346;-6.554;2022-12-07T10:47:22;101841.23;;;4.30;49.69
40372;BME280;28564;53.346;-6.554;2022-12-07T10:50:07;101839.64;;;4.32;49.74
40372;BME280;28564;53.346;-6.554;2022-12-07T10:52:45;101838.83;;;4.18;49.65
40372;BME280;28564;53.346;-6.554;2022-12-07T10:55:23;101840.76;;;4.31;49.40
40372;BME280;28564;53.346;-6.554;2022-12-07T10:58:07;101841.55;;;4.89;49.71
40372;BME280;28564;53.346;-6.554;2022-12-07T11:00:43;101842.53;;;4.47;49.45
40372;BME280;28564;53.346;-6.554;2022-12-07T11:03:27;101839.90;;;4.54;49.32
40372;BME280;28564;53.346;-6.554;2022-12-07T11:06:05;101837.90;;;4.61;49.30
40372;BME280;28564;53.346;-6.554;2022-12-07T11:08:48;101834.67;;;4.64;49.23
40372;BME280;28564;53.346;-6.554;2022-12-07T11:11:26;101830.40;;;4.67;49.04
40372;BME280;28564;53.346;-6.554;2022-12-07T11:14:04;101826.25;;;5.21;48.87
40372;BME280;28564;53.346;-6.554;2022-12-07T11:16:43;101824.63;;;4.73;48.94
40372;BME280;28564;53.346;-6.554;2022-12-07T11:19:28;101825.65;;;4.80;49.04
40372;BME280;28564;53.346;-6.554;2022-12-07T11:22:04;101821.52;;;5.07;48.92
40372;BME280;28564;53.346;-6.554;2022-12-07T11:24:40;101814.01;;;5.37;48.84
40372;BME280;28564;53.346;-6.554;2022-12-07T11:27:19;101815.38;;;5.44;48.98
40372;BME280;28564;53.346;-6.554;2022-12-07T11:30:00;101812.98;;;4.98;48.72
40372;BME280;28564;53.346;-6.554;2022-12-07T11:32:44;101811.90;;;5.02;49.00
40372;BME280;28564;53.346;-6.554;2022-12-07T11:35:20;101809.46;;;5.19;49.05
40372;BME280;28564;53.346;-6.554;2022-12-07T11:37:51;101810.19;;;5.28;48.94
40372;BME280;28564;53.346;-6.554;2022-12-07T11:40:26;101808.69;;;5.07;48.82
40372;BME280;28564;53.346;-6.554;2022-12-07T11:42:58;101807.55;;;4.91;48.86
40372;BME280;28564;53.346;-6.554;2022-12-07T11:45:28;101799.30;;;5.23;48.77
40372;BME280;28564;53.346;-6.554;2022-12-07T11:48:00;101800.07;;;5.28;48.64
40372;BME280;28564;53.346;-6.554;2022-12-07T11:50:34;101795.95;;;5.66;48.33
40372;BME280;28564;53.346;-6.554;2022-12-07T11:53:10;101791.81;;;5.68;48.16
40372;BME280;28564;53.346;-6.554;2022-12-07T11:55:43;101786.76;;;5.46;48.30
40372;BME280;28564;53.346;-6.554;2022-12-07T11:58:29;101783.42;;;5.57;48.18
40372;BME280;28564;53.346;-6.554;2022-12-07T12:01:11;101778.28;;;5.66;48.05
40372;BME280;28564;53.346;-6.554;2022-12-07T12:03:44;101774.93;;;5.74;47.89
40372;BME280;28564;53.346;-6.554;2022-12-07T12:06:12;101767.87;;;5.85;47.87
40372;BME280;28564;53.346;-6.554;2022-12-07T12:08:42;101766.24;;;5.93;48.03
40372;BME280;28564;53.346;-6.554;2022-12-07T12:11:20;101763.60;;;6.02;48.02
40372;BME280;28564;53.346;-6.554;2022-12-07T12:14:09;101757.78;;;5.91;47.94
40372;BME280;28564;53.346;-6.554;2022-12-07T12:17:02;101753.24;;;5.99;47.79
40372;BME280;28564;53.346;-6.554;2022-12-07T12:19:37;101746.81;;;6.11;47.39
40372;BME280;28564;53.346;-6.554;2022-12-07T12:22:14;101743.21;;;6.35;47.45
40372;BME280;28564;53.346;-6.554;2022-12-07T12:24:43;101743.51;;;6.16;47.35
40372;BME280;28564;53.346;-6.554;2022-12-07T12:27:20;101741.95;;;6.19;47.26
40372;BME280;28564;53.346;-6.554;2022-12-07T12:29:54;101741.92;;;6.17;47.17
40372;BME280;28564;53.346;-6.554;2022-12-07T12:32:28;101738.43;;;6.41;47.22
40372;BME280;28564;53.346;-6.554;2022-12-07T12:35:03;101730.99;;;6.17;47.14
40372;BME280;28564;53.346;-6.554;2022-12-07T12:37:47;101725.13;;;6.13;47.12
40372;BME280;28564;53.346;-6.554;2022-12-07T12:40:46;101720.74;;;6.08;47.22
40372;BME280;28564;53.346;-6.554;2022-12-07T12:44:41;101723.59;;;5.87;47.21
40372;BME280;28564;53.346;-6.554;2022-12-07T12:47:53;101713.95;;;6.08;47.26
40372;BME280;28564;53.346;-6.554;2022-12-07T12:50:25;101714.25;;;6.10;47.40
40372;BME280;28564;53.346;-6.554;2022-12-07T12:53:02;101705.48;;;6.31;47.44
40372;BME280;28564;53.346;-6.554;2022-12-07T12:56:04;101709.67;;;6.13;47.52
40372;BME280;28564;53.346;-6.554;2022-12-07T12:58:41;101705.56;;;6.15;47.55
40372;BME280;28564;53.346;-6.554;2022-12-07T13:01:43;101703.81;;;6.18;47.65
40372;BME280;28564;53.346;-6.554;2022-12-07T13:04:24;101697.49;;;6.24;47.65
40372;BME280;28564;53.346;-6.554;2022-12-07T13:06:52;101693.34;;;6.26;47.60
40372;BME280;28564;53.346;-6.554;2022-12-07T13:09:23;101687.24;;;6.30;47.45
40372;BME280;28564;53.346;-6.554;2022-12-07T13:11:59;101682.42;;;6.31;47.28
40372;BME280;28564;53.346;-6.554;2022-12-07T13:15:00;101680.46;;;6.29;47.24